Time;durP1;ratioP1;P1;durP2;ratioP2;P2;SDS_P1;SDS_P2;PMS_P1;PMS_P2;Temp;Humidity;BMP_temperature;BMP_pressure;BME280_temperature;BME280_humidity;BME280_pressure;Samples;Min_cycle;Max_cycle;Signal;HPM_P1;HPM_P2
2021/10/22 00:00:56;;;;;;;2.88;0.95;;;8.50;82.20;;;;;;5055595;28;20057;-80
2021/10/22 00:03:22;;;;;;;4.13;1.20;;;8.50;82.30;;;;;;5052542;28;20121;-80
2021/10/22 00:05:49;;;;;;;2.83;1.25;;;8.50;82.30;;;;;;5050120;28;20032;-80
2021/10/22 00:08:15;;;;;;;4.95;1.20;;;8.50;82.30;;;;;;5054329;28;20194;-80
2021/10/22 00:10:41;;;;;;;3.10;1.00;;;8.50;82.30;;;;;;5052692;28;20119;-79
2021/10/22 00:13:08;;;;;;;3.67;1.38;;;8.50;82.40;;;;;;5057049;28;20486;-80
2021/10/22 00:15:33;;;;;;;5.38;1.60;;;8.50;82.40;;;;;;5043477;28;20045;-81
2021/10/22 00:17:59;;;;;;;4.63;1.35;;;8.50;82.40;;;;;;5044837;28;20009;-80
2021/10/22 00:20:25;;;;;;;6.70;1.50;;;8.50;82.40;;;;;;5055172;28;20032;-81
2021/10/22 00:22:50;;;;;;;4.68;1.40;;;8.40;82.30;;;;;;5065816;28;20017;-81
2021/10/22 00:25:16;;;;;;;3.67;1.35;;;8.40;82.30;;;;;;5049690;28;20112;-80
2021/10/22 00:27:41;;;;;;;4.18;1.23;;;8.40;82.40;;;;;;5044871;28;20017;-81
2021/10/22 00:30:08;;;;;;;3.70;1.33;;;8.40;82.40;;;;;;5057705;28;20032;-81
2021/10/22 00:32:33;;;;;;;3.28;1.40;;;8.40;82.40;;;;;;5050180;28;20037;-80
2021/10/22 00:34:59;;;;;;;5.68;1.50;;;8.40;82.50;;;;;;5058850;28;20032;-80
2021/10/22 00:37:25;;;;;;;3.05;1.20;;;8.40;82.50;;;;;;5057279;28;20055;-80
2021/10/22 00:39:50;;;;;;;4.28;1.55;;;8.40;82.40;;;;;;5051792;28;20377;-80
2021/10/22 00:42:17;;;;;;;3.70;1.50;;;8.40;82.30;;;;;;5051193;28;20033;-80
2021/10/22 00:44:43;;;;;;;3.70;1.38;;;8.40;82.40;;;;;;5055071;28;20085;-80
2021/10/22 00:47:09;;;;;;;4.95;1.40;;;8.40;82.40;;;;;;5060145;28;20512;-80
2021/10/22 00:49:35;;;;;;;4.88;1.50;;;8.40;82.40;;;;;;5048321;28;20344;-81
2021/10/22 00:52:01;;;;;;;3.45;1.13;;;8.40;82.40;;;;;;5050697;28;20082;-80
2021/10/22 00:54:27;;;;;;;5.65;1.50;;;8.40;82.50;;;;;;5054533;28;20119;-80
2021/10/22 00:56:53;;;;;;;5.70;1.60;;;8.40;82.50;;;;;;5062430;28;20119;-80
2021/10/22 00:59:18;;;;;;;4.82;1.83;;;8.30;82.50;;;;;;5051348;28;20557;-80
2021/10/22 01:01:44;;;;;;;3.75;1.30;;;8.30;83.30;;;;;;5049456;28;20180;-81
2021/10/22 01:04:10;;;;;;;6.55;1.75;;;8.30;82.70;;;;;;5044535;28;20075;-80
2021/10/22 01:06:37;;;;;;;3.97;1.30;;;8.30;82.80;;;;;;5052963;28;20107;-81
2021/10/22 01:09:07;;;;;;;3.50;1.40;;;8.20;82.80;;;;;;5050024;28;20052;-80
2021/10/22 01:11:34;;;;;;;2.80;1.10;;;8.20;82.90;;;;;;5050653;28;20499;-80
2021/10/22 01:14:04;;;;;;;6.22;1.63;;;8.20;82.90;;;;;;5051532;28;20032;-81
2021/10/22 01:16:29;;;;;;;5.57;1.80;;;8.20;82.90;;;;;;5063112;28;20036;-81
2021/10/22 01:18:55;;;;;;;3.35;1.50;;;8.20;82.90;;;;;;5048842;28;20025;-81
2021/10/22 01:21:20;;;;;;;6.82;1.50;;;8.10;82.90;;;;;;5052278;28;20020;-81
2021/10/22 01:23:47;;;;;;;4.43;1.52;;;8.10;82.90;;;;;;5049012;28;20025;-81
2021/10/22 01:26:13;;;;;;;4.97;1.50;;;8.10;83.00;;;;;;5052090;28;20115;-81
2021/10/22 01:28:40;;;;;;;6.25;1.65;;;8.10;83.00;;;;;;5060826;28;20539;-80
2021/10/22 01:31:06;;;;;;;5.70;1.50;;;8.00;83.10;;;;;;5052116;28;20024;-81
2021/10/22 01:33:32;;;;;;;4.13;1.33;;;8.00;83.20;;;;;;5056087;28;20033;-80
2021/10/22 01:35:58;;;;;;;3.97;1.30;;;8.00;83.20;;;;;;5057695;28;20771;-81
2021/10/22 01:38:25;;;;;;;3.45;1.30;;;7.90;83.20;;;;;;5039650;28;20044;-80
2021/10/22 01:40:54;;;;;;;4.97;1.63;;;7.90;83.30;;;;;;5050152;28;20028;-80
2021/10/22 01:43:21;;;;;;;3.83;1.48;;;7.90;83.40;;;;;;5051591;28;20021;-81
2021/10/22 01:45:47;;;;;;;6.07;1.65;;;7.90;83.40;;;;;;5050188;28;20135;-80
2021/10/22 01:48:13;;;;;;;4.50;1.42;;;7.90;83.50;;;;;;5056010;28;20091;-80
2021/10/22 01:50:38;;;;;;;3.97;1.50;;;7.90;83.50;;;;;;5053140;28;20028;-80
2021/10/22 01:53:04;;;;;;;5.88;1.63;;;7.90;83.60;;;;;;5052304;28;20033;-80
2021/10/22 01:55:30;;;;;;;3.45;1.50;;;7.80;83.60;;;;;;5051444;28;20132;-79
2021/10/22 01:57:55;;;;;;;3.95;1.30;;;7.80;83.60;;;;;;5049910;28;20017;-79
2021/10/22 02:00:21;;;;;;;4.05;1.75;;;7.80;83.60;;;;;;5052788;28;20475;-79
2021/10/22 02:02:47;;;;;;;4.70;1.52;;;7.80;83.60;;;;;;5043249;28;20044;-79
2021/10/22 02:05:12;;;;;;;5.28;2.00;;;7.80;83.60;;;;;;5063623;28;20021;-80
2021/10/22 02:07:38;;;;;;;3.85;1.75;;;7.80;83.60;;;;;;5059844;28;20020;-80
2021/10/22 02:10:04;;;;;;;6.43;1.63;;;7.70;83.60;;;;;;5050596;28;20025;-80
2021/10/22 02:12:30;;;;;;;3.03;1.40;;;7.70;84.20;;;;;;5058546;28;20055;-80
2021/10/22 02:14:56;;;;;;;6.72;1.70;;;7.70;83.50;;;;;;5057640;28;20032;-80
2021/10/22 02:17:21;;;;;;;6.00;1.63;;;7.70;83.50;;;;;;5057862;28;20060;-80
2021/10/22 02:19:47;;;;;;;8.05;1.90;;;7.70;83.50;;;;;;5055743;28;20131;-79
2021/10/22 02:22:13;;;;;;;5.25;2.00;;;7.70;83.50;;;;;;5055845;28;20024;-80
2021/10/22 02:24:39;;;;;;;6.07;1.75;;;7.60;83.50;;;;;;5058830;28;20107;-81
2021/10/22 02:27:04;;;;;;;6.90;2.10;;;7.60;83.60;;;;;;5057374;28;20115;-81
2021/10/22 02:29:30;;;;;;;3.78;1.70;;;7.60;83.60;;;;;;5053181;28;20040;-81
2021/10/22 02:31:56;;;;;;;6.45;1.80;;;7.60;83.60;;;;;;5054753;28;20087;-80
2021/10/22 02:34:21;;;;;;;6.22;1.70;;;7.60;83.60;;;;;;5061012;28;20029;-80
2021/10/22 02:36:49;;;;;;;4.15;1.30;;;7.60;83.60;;;;;;5053226;28;20036;-81
2021/10/22 02:39:15;;;;;;;6.70;1.70;;;7.60;83.50;;;;;;5057318;28;20025;-81
2021/10/22 02:41:41;;;;;;;4.20;1.35;;;7.60;83.50;;;;;;5053988;28;20153;-81
2021/10/22 02:44:06;;;;;;;4.13;1.48;;;7.60;83.50;;;;;;5058759;28;20111;-81
2021/10/22 02:46:32;;;;;;;4.65;1.48;;;7.60;83.50;;;;;;5057881;28;20120;-81
2021/10/22 02:48:57;;;;;;;7.50;1.70;;;7.60;83.40;;;;;;5052991;28;20476;-80
2021/10/22 02:51:23;;;;;;;4.45;1.45;;;7.50;83.20;;;;;;5049674;28;20084;-80
2021/10/22 02:53:48;;;;;;;3.83;1.67;;;7.50;83.20;;;;;;5058746;28;20025;-82
2021/10/22 02:56:14;;;;;;;5.07;1.58;;;7.50;83.10;;;;;;5055729;28;20073;-81
2021/10/22 02:58:39;;;;;;;4.95;1.50;;;7.50;83.10;;;;;;5062847;28;20025;-82
2021/10/22 03:01:05;;;;;;;4.20;1.60;;;7.40;83.10;;;;;;5052016;28;20096;-82
2021/10/22 03:03:31;;;;;;;8.13;2.10;;;7.40;83.00;;;;;;5055474;28;20540;-80
2021/10/22 03:05:57;;;;;;;7.60;1.90;;;7.40;82.90;;;;;;5045599;28;20396;-79
2021/10/22 03:08:22;;;;;;;5.70;1.80;;;7.40;82.90;;;;;;5061855;28;20124;-80
2021/10/22 03:10:48;;;;;;;4.65;1.92;;;7.40;82.90;;;;;;5048910;28;20032;-79
2021/10/22 03:13:13;;;;;;;5.05;1.45;;;7.40;82.90;;;;;;5052148;28;20028;-80
2021/10/22 03:15:39;;;;;;;4.68;1.88;;;7.40;82.80;;;;;;5053749;28;20029;-79
2021/10/22 03:18:04;;;;;;;5.68;1.80;;;7.40;82.80;;;;;;5060021;28;20430;-80
2021/10/22 03:20:31;;;;;;;4.57;1.70;;;7.40;82.70;;;;;;5054349;28;20033;-80
2021/10/22 03:22:56;;;;;;;5.93;1.80;;;7.40;82.70;;;;;;5051052;28;20024;-79
2021/10/22 03:25:22;;;;;;;3.65;1.58;;;7.40;82.60;;;;;;5048726;28;20025;-79
2021/10/22 03:27:48;;;;;;;4.25;1.70;;;7.30;82.60;;;;;;5047670;28;20028;-81
2021/10/22 03:30:15;;;;;;;4.25;1.63;;;7.40;82.70;;;;;;5056246;28;20021;-79
2021/10/22 03:32:40;;;;;;;6.07;2.00;;;7.30;82.70;;;;;;5048875;28;20025;-79
2021/10/22 03:35:06;;;;;;;5.97;2.00;;;7.30;82.70;;;;;;5061423;28;20059;-80
2021/10/22 03:37:33;;;;;;;7.15;1.83;;;7.30;82.70;;;;;;5053410;28;20056;-81
2021/10/22 03:39:58;;;;;;;6.18;1.70;;;7.30;82.80;;;;;;5048521;28;20387;-79
2021/10/22 03:42:24;;;;;;;4.25;1.63;;;7.30;82.70;;;;;;5056799;28;20033;-81
2021/10/22 03:44:49;;;;;;;4.53;1.50;;;7.30;82.80;;;;;;5052662;28;20380;-81
2021/10/22 03:47:15;;;;;;;6.13;1.88;;;7.40;82.80;;;;;;5057759;28;20111;-80
2021/10/22 03:49:41;;;;;;;6.93;2.40;;;7.30;82.60;;;;;;5049709;28;20024;-80
2021/10/22 03:52:06;;;;;;;7.90;2.45;;;7.30;82.60;;;;;;5054709;28;20017;-80
2021/10/22 03:54:32;;;;;;;6.95;2.17;;;7.30;82.50;;;;;;5060934;28;20565;-80
2021/10/22 03:56:57;;;;;;;5.15;1.80;;;7.30;82.50;;;;;;5057884;28;20025;-81
2021/10/22 03:59:23;;;;;;;5.50;2.08;;;7.30;82.60;;;;;;5054622;28;20013;-80
2021/10/22 04:01:50;;;;;;;5.35;2.10;;;7.30;82.60;;;;;;5050949;28;20029;-81
2021/10/22 04:04:16;;;;;;;7.75;2.13;;;7.30;82.50;;;;;;5061203;28;20033;-79
2021/10/22 04:06:42;;;;;;;10.63;2.47;;;7.30;82.50;;;;;;5056833;28;20023;-81
2021/10/22 04:09:08;;;;;;;6.38;2.30;;;7.30;82.40;;;;;;5060012;28;20021;-80
2021/10/22 04:11:34;;;;;;;4.18;2.05;;;7.30;82.40;;;;;;5053693;28;20060;-80
2021/10/22 04:14:01;;;;;;;7.05;2.30;;;7.30;82.50;;;;;;5061035;28;20029;-81
2021/10/22 04:16:27;;;;;;;7.18;2.63;;;7.30;82.50;;;;;;5052286;28;20055;-80
2021/10/22 04:18:52;;;;;;;7.00;2.28;;;7.30;82.50;;;;;;5049532;28;20104;-81
2021/10/22 04:21:18;;;;;;;5.68;2.00;;;7.30;82.50;;;;;;5052770;28;20120;-80
2021/10/22 04:23:45;;;;;;;6.13;2.40;;;7.40;82.60;;;;;;5061233;28;20024;-81
2021/10/22 04:26:11;;;;;;;7.95;2.50;;;7.40;82.50;;;;;;5051825;28;20458;-81
2021/10/22 04:28:36;;;;;;;8.52;2.40;;;7.40;82.50;;;;;;5055981;28;20104;-81
2021/10/22 04:31:02;;;;;;;6.57;2.38;;;7.40;82.40;;;;;;5052269;28;20037;-81
2021/10/22 04:33:28;;;;;;;7.55;2.33;;;7.40;82.40;;;;;;5059176;28;20055;-79
2021/10/22 04:35:53;;;;;;;10.02;2.75;;;7.50;82.50;;;;;;5047441;28;20067;-80
2021/10/22 04:40:45;;;;;;;7.80;2.20;;;7.60;82.40;;;;;;5046451;28;20440;-80
2021/10/22 04:43:17;;;;;;;4.55;1.92;;;7.60;82.30;;;;;;5059654;28;20482;-81
2021/10/22 04:45:46;;;;;;;7.45;2.47;;;7.60;82.20;;;;;;5042247;28;20082;-80
2021/10/22 04:48:12;;;;;;;5.97;2.67;;;7.70;82.80;;;;;;5060512;28;20078;-81
2021/10/22 04:50:43;;;;;;;4.80;2.13;;;7.70;82.10;;;;;;5048580;28;20048;-81
2021/10/22 04:53:09;;;;;;;3.53;1.83;;;7.70;82.10;;;;;;5056757;28;20403;-80
2021/10/22 04:55:38;;;;;;;7.03;2.42;;;7.80;82.10;;;;;;5049704;28;20095;-80
2021/10/22 04:58:03;;;;;;;6.93;2.38;;;7.80;82.10;;;;;;5058292;28;20104;-80
2021/10/22 05:00:29;;;;;;;5.15;2.10;;;7.80;82.10;;;;;;5054868;28;20032;-80
2021/10/22 05:02:54;;;;;;;6.57;2.58;;;7.80;82.20;;;;;;5056683;28;20075;-80
2021/10/22 05:05:20;;;;;;;4.90;2.35;;;7.80;82.20;;;;;;5050587;28;20117;-80
2021/10/22 05:07:45;;;;;;;7.15;2.30;;;7.90;82.20;;;;;;5048259;28;20480;-80
2021/10/22 05:10:11;;;;;;;5.68;2.42;;;7.90;82.30;;;;;;5044346;28;20036;-79
2021/10/22 05:12:37;;;;;;;5.10;2.28;;;7.90;82.30;;;;;;5048942;28;20032;-81
2021/10/22 05:15:05;;;;;;;7.07;2.33;;;7.90;82.50;;;;;;5041873;28;20021;-80
2021/10/22 05:17:32;;;;;;;8.80;2.50;;;7.90;82.70;;;;;;5046039;28;20088;-82
2021/10/22 05:19:57;;;;;;;8.45;2.85;;;7.90;82.70;;;;;;5047957;28;20137;-80
2021/10/22 05:22:23;;;;;;;5.80;2.10;;;8.00;82.80;;;;;;5048970;28;20147;-82
2021/10/22 05:24:49;;;;;;;7.43;2.60;;;8.00;83.00;;;;;;5052362;28;20032;-80
2021/10/22 05:27:15;;;;;;;8.77;2.72;;;8.00;83.10;;;;;;5052442;28;20044;-81
2021/10/22 05:29:40;;;;;;;8.77;2.58;;;8.00;83.40;;;;;;5053429;28;20028;-78
2021/10/22 05:32:06;;;;;;;6.63;2.42;;;8.00;83.50;;;;;;5065524;28;20056;-85
2021/10/22 05:34:32;;;;;;;6.22;2.45;;;7.90;83.70;;;;;;5042662;28;20055;-78
2021/10/22 05:36:57;;;;;;;8.88;2.60;;;7.90;83.80;;;;;;5039000;28;20403;-77
2021/10/22 05:39:23;;;;;;;6.97;2.70;;;7.90;83.90;;;;;;5053054;28;20031;-77
2021/10/22 05:41:50;;;;;;;7.20;2.40;;;7.90;84.10;;;;;;5045835;28;20035;-77
2021/10/22 05:44:19;;;;;;;6.55;2.00;;;7.90;84.20;;;;;;5053533;28;20026;-77
2021/10/22 05:46:46;;;;;;;7.03;2.38;;;7.80;84.20;;;;;;5042391;28;20071;-78
2021/10/22 05:49:12;;;;;;;6.68;2.60;;;7.80;84.40;;;;;;5040997;28;20040;-78
2021/10/22 05:51:38;;;;;;;6.22;2.38;;;7.80;84.60;;;;;;5040699;28;20034;-77
2021/10/22 05:54:04;;;;;;;8.57;2.40;;;7.80;84.60;;;;;;5052752;28;20379;-81
2021/10/22 05:56:30;;;;;;;7.57;2.38;;;7.80;84.70;;;;;;5054486;28;20128;-77
2021/10/22 05:58:55;;;;;;;9.25;3.30;;;7.80;84.80;;;;;;5052306;28;20024;-79
2021/10/22 06:01:24;;;;;;;6.28;2.38;;;7.80;84.80;;;;;;5048643;28;20053;-78
2021/10/22 06:03:50;;;;;;;8.25;2.50;;;7.80;85.00;;;;;;5048824;28;20021;-79
2021/10/22 06:06:17;;;;;;;11.10;3.05;;;7.70;85.00;;;;;;5041786;28;20104;-79
2021/10/22 06:08:42;;;;;;;6.55;2.55;;;7.80;85.20;;;;;;5040658;28;20037;-79
2021/10/22 06:11:12;;;;;;;5.80;2.40;;;7.80;85.20;;;;;;5047024;28;20395;-79
2021/10/22 06:13:39;;;;;;;7.38;2.25;;;7.80;85.30;;;;;;5044411;28;20467;-79
2021/10/22 06:16:06;;;;;;;7.00;2.20;;;7.90;85.50;;;;;;5044636;28;20541;-79
2021/10/22 06:18:32;;;;;;;12.13;2.67;;;7.90;85.50;;;;;;5041845;28;20029;-79
2021/10/22 06:21:03;;;;;;;5.90;2.00;;;7.90;85.60;;;;;;5046278;28;20078;-79
2021/10/22 06:26:13;;;;;;;6.93;2.78;;;8.00;85.80;;;;;;5045623;28;20522;-79
2021/10/22 06:28:39;;;;;;;6.90;2.38;;;8.00;85.90;;;;;;5046530;28;20017;-78
2021/10/22 06:31:05;;;;;;;6.88;2.75;;;8.00;86.00;;;;;;5056975;28;20029;-79
2021/10/22 06:33:31;;;;;;;8.48;2.63;;;8.10;86.00;;;;;;5048126;28;20519;-78
2021/10/22 06:35:56;;;;;;;6.43;2.47;;;8.10;86.00;;;;;;5042043;28;20025;-78
2021/10/22 06:38:23;;;;;;;7.45;2.50;;;8.20;86.10;;;;;;5048752;28;20025;-77
2021/10/22 06:40:53;;;;;;;5.90;2.70;;;8.20;86.20;;;;;;5050936;28;20024;-78
2021/10/22 06:43:20;;;;;;;6.47;2.45;;;8.20;86.30;;;;;;5044979;28;20026;-77
2021/10/22 06:45:46;;;;;;;8.88;2.72;;;8.20;86.40;;;;;;5045571;28;20540;-78
2021/10/22 06:48:12;;;;;;;4.78;2.15;;;8.20;86.50;;;;;;5044503;28;20443;-77
2021/10/22 06:50:37;;;;;;;6.20;2.40;;;8.20;86.40;;;;;;5052468;28;20025;-78
2021/10/22 06:53:03;;;;;;;8.57;2.70;;;8.30;86.40;;;;;;5050793;28;20464;-77
2021/10/22 06:55:28;;;;;;;9.93;2.88;;;8.30;86.50;;;;;;5051511;28;20029;-78
2021/10/22 06:57:54;;;;;;;8.27;2.60;;;8.30;86.40;;;;;;5048965;28;20033;-78
2021/10/22 07:00:19;;;;;;;5.68;2.40;;;8.30;86.70;;;;;;5052767;28;20025;-79
2021/10/22 07:02:50;;;;;;;7.80;2.92;;;8.30;86.40;;;;;;5053046;28;20076;-79
2021/10/22 07:08:14;;;;;;;6.45;2.65;;;8.40;86.60;;;;;;5063106;28;20250;-79
2021/10/22 07:10:40;;;;;;;6.90;2.50;;;8.40;86.60;;;;;;5051294;28;20024;-80
2021/10/22 07:13:06;;;;;;;10.15;3.30;;;8.40;86.60;;;;;;5056499;28;20025;-79
2021/10/22 07:15:32;;;;;;;6.28;2.58;;;8.40;86.60;;;;;;5037178;28;20041;-80
2021/10/22 07:18:01;;;;;;;6.40;3.20;;;8.50;86.60;;;;;;5046168;28;20438;-80
2021/10/22 07:20:28;;;;;;;7.93;2.85;;;8.50;86.50;;;;;;5052342;28;20020;-80
2021/10/22 07:22:56;;;;;;;7.63;2.55;;;8.50;86.40;;;;;;5047306;28;20029;-79
2021/10/22 07:25:23;;;;;;;8.45;2.72;;;8.60;86.30;;;;;;5046565;28;20120;-79
2021/10/22 07:27:50;;;;;;;11.13;2.92;;;8.60;86.20;;;;;;5043678;28;20103;-79
2021/10/22 07:30:16;;;;;;;7.22;2.63;;;8.50;86.10;;;;;;5056407;28;20034;-79
2021/10/22 07:32:43;;;;;;;7.35;2.70;;;8.50;86.10;;;;;;5051439;28;20032;-80
2021/10/22 07:35:10;;;;;;;8.40;2.67;;;8.60;86.30;;;;;;5048227;28;20036;-77
2021/10/22 07:37:36;;;;;;;8.25;2.92;;;8.70;86.20;;;;;;5055291;28;20100;-80
2021/10/22 07:40:04;;;;;;;8.93;3.58;;;8.80;86.10;;;;;;5057176;28;20025;-81
2021/10/22 07:42:29;;;;;;;6.07;2.70;;;8.90;85.90;;;;;;5050867;28;20032;-80
2021/10/22 07:45:02;;;;;;;5.75;2.70;;;8.90;85.80;;;;;;5047645;28;20033;-80
2021/10/22 07:47:29;;;;;;;10.90;2.88;;;8.90;85.80;;;;;;5042255;28;20022;-81
2021/10/22 07:49:56;;;;;;;7.15;3.25;;;9.00;85.70;;;;;;5053585;28;20051;-80
2021/10/22 07:52:23;;;;;;;8.77;2.97;;;9.00;85.60;;;;;;5051291;28;20025;-79
2021/10/22 07:54:49;;;;;;;6.95;2.83;;;9.00;85.50;;;;;;5050236;28;20026;-79
2021/10/22 07:57:16;;;;;;;5.90;2.30;;;9.00;85.50;;;;;;5047442;28;20037;-76
2021/10/22 07:59:41;;;;;;;7.95;2.65;;;9.10;85.50;;;;;;5053841;28;20022;-80
2021/10/22 08:02:09;;;;;;;7.03;2.78;;;9.10;85.30;;;;;;5043298;28;20037;-81
2021/10/22 08:04:35;;;;;;;9.68;2.70;;;9.10;85.30;;;;;;5052756;28;20020;-81
2021/10/22 08:07:00;;;;;;;6.78;2.70;;;9.10;85.20;;;;;;5053109;28;20037;-82
2021/10/22 08:09:26;;;;;;;4.88;2.13;;;9.20;85.20;;;;;;5050375;28;20078;-83
2021/10/22 08:11:52;;;;;;;8.63;2.65;;;9.30;85.80;;;;;;5053869;28;20029;-83
2021/10/22 08:14:19;;;;;;;5.30;2.30;;;9.30;85.00;;;;;;5053786;28;20136;-78
2021/10/22 08:16:44;;;;;;;7.68;2.53;;;9.30;85.00;;;;;;5042967;28;20041;-75
2021/10/22 08:19:10;;;;;;;5.60;2.05;;;9.40;85.00;;;;;;5046076;28;20376;-75
2021/10/22 08:24:04;;;;;;;6.90;2.70;;;9.40;84.80;;;;;;5045261;28;20032;-79
2021/10/22 08:26:30;;;;;;;8.88;3.30;;;9.50;84.70;;;;;;5055391;28;20440;-79
2021/10/22 08:28:55;;;;;;;8.82;2.97;;;9.50;84.60;;;;;;5049396;28;20035;-77
2021/10/22 08:31:21;;;;;;;8.13;3.03;;;9.50;84.60;;;;;;5041500;28;20029;-77
2021/10/22 08:33:46;;;;;;;5.60;2.25;;;9.50;84.60;;;;;;5048523;28;20032;-77
2021/10/22 08:36:12;;;;;;;7.82;2.58;;;9.50;84.60;;;;;;5046217;28;20675;-75
2021/10/22 08:38:39;;;;;;;9.15;3.47;;;9.50;84.60;;;;;;5045578;28;20124;-76
2021/10/22 08:41:09;;;;;;;7.60;2.80;;;9.60;84.60;;;;;;5048705;28;20029;-77
2021/10/22 08:43:35;;;;;;;7.45;2.50;;;9.80;84.50;;;;;;5043164;28;20032;-77
2021/10/22 08:46:02;;;;;;;8.93;3.10;;;9.90;84.20;;;;;;5048222;28;20119;-76
2021/10/22 08:48:28;;;;;;;7.75;2.78;;;10.00;83.90;;;;;;5051447;28;20039;-76
2021/10/22 08:50:55;;;;;;;7.57;2.42;;;10.00;83.50;;;;;;5045754;28;20105;-77
2021/10/22 08:53:25;;;;;;;8.68;2.80;;;10.00;83.40;;;;;;5039857;28;20041;-76
2021/10/22 08:55:51;;;;;;;8.65;2.90;;;10.00;83.40;;;;;;5051207;28;20376;-75
2021/10/22 08:58:19;;;;;;;8.77;2.90;;;10.00;83.40;;;;;;5064368;28;20111;-77
2021/10/22 09:00:46;;;;;;;4.57;2.28;;;10.00;83.40;;;;;;5051764;28;20112;-77
2021/10/22 09:03:18;;;;;;;6.80;2.47;;;10.00;83.40;;;;;;5047727;28;20052;-78
2021/10/22 09:06:08;;;;;;;8.10;3.20;;;10.10;83.30;;;;;;5054037;28;20021;-77
2021/10/22 09:08:37;;;;;;;5.93;2.45;;;10.20;83.10;;;;;;5041998;28;20501;-76
2021/10/22 09:11:04;;;;;;;7.00;2.50;;;10.20;82.90;;;;;;5048186;28;20025;-76
2021/10/22 09:13:35;;;;;;;7.72;2.53;;;10.30;82.80;;;;;;5049550;28;20036;-79
2021/10/22 09:16:18;;;;;;;5.00;2.63;;;10.30;82.60;;;;;;5047694;28;20028;-79
2021/10/22 09:18:44;;;;;;;6.32;2.30;;;10.40;82.60;;;;;;5040260;28;20109;-76
2021/10/22 09:21:10;;;;;;;5.32;2.10;;;10.40;82.40;;;;;;5049651;28;20487;-77
2021/10/22 09:23:41;;;;;;;8.68;2.65;;;10.40;82.40;;;;;;5045346;28;20403;-79
2021/10/22 09:26:30;;;;;;;8.95;2.60;;;10.40;82.30;;;;;;5059260;28;20486;-78
2021/10/22 09:28:56;;;;;;;6.93;1.88;;;10.40;82.30;;;;;;5045283;28;20036;-79
2021/10/22 09:31:23;;;;;;;6.68;2.30;;;10.50;82.20;;;;;;5048047;28;20368;-79
2021/10/22 09:34:01;;;;;;;5.35;2.20;;;10.50;82.10;;;;;;5052830;28;20052;-77
2021/10/22 09:36:48;;;;;;;9.02;2.78;;;10.50;81.90;;;;;;5055335;28;20052;-78
2021/10/22 09:39:20;;;;;;;8.35;2.70;;;10.50;81.80;;;;;;5052451;28;20036;-78
2021/10/22 09:41:54;;;;;;;8.27;2.70;;;10.50;81.80;;;;;;5049896;28;20029;-77
2021/10/22 09:44:26;;;;;;;6.63;2.05;;;10.50;81.90;;;;;;5055302;28;20033;-76
2021/10/22 09:47:03;;;;;;;7.43;2.20;;;10.60;82.20;;;;;;5051616;28;20032;-77
2021/10/22 09:49:30;;;;;;;5.72;1.88;;;10.60;82.50;;;;;;5045817;28;20639;-76
2021/10/22 09:51:56;;;;;;;7.68;2.53;;;10.70;82.50;;;;;;5052428;28;20039;-76
2021/10/22 09:54:31;;;;;;;8.27;2.30;;;10.70;82.50;;;;;;5049990;28;20017;-79
2021/10/22 09:57:04;;;;;;;7.38;2.33;;;10.70;82.50;;;;;;5045554;28;20060;-76
2021/10/22 09:59:31;;;;;;;6.28;1.98;;;10.70;82.60;;;;;;5046963;28;20565;-77
2021/10/22 10:02:01;;;;;;;7.07;2.30;;;10.60;82.50;;;;;;5049296;28;20076;-77
2021/10/22 10:04:28;;;;;;;6.18;2.30;;;10.60;82.60;;;;;;5043129;28;20081;-76
2021/10/22 10:06:55;;;;;;;8.05;2.17;;;10.60;82.70;;;;;;5040459;28;20061;-77
2021/10/22 10:09:21;;;;;;;8.85;2.20;;;10.60;82.90;;;;;;5040208;28;20024;-79
2021/10/22 10:11:49;;;;;;;5.65;1.75;;;10.50;82.90;;;;;;5042297;28;20060;-78
2021/10/22 10:14:16;;;;;;;8.65;2.17;;;10.50;83.10;;;;;;5042889;28;20033;-77
2021/10/22 10:16:44;;;;;;;5.32;2.15;;;10.60;83.20;;;;;;5042582;28;20033;-79
2021/10/22 10:19:20;;;;;;;6.47;1.85;;;10.50;83.40;;;;;;5040612;28;20472;-79
2021/10/22 10:21:53;;;;;;;5.40;2.03;;;10.50;83.50;;;;;;5041690;28;20033;-79
2021/10/22 10:24:28;;;;;;;5.30;1.80;;;10.50;83.60;;;;;;5049054;28;20021;-77
2021/10/22 10:27:09;;;;;;;4.38;1.90;;;10.50;83.70;;;;;;5045286;28;20029;-79
2021/10/22 10:29:47;;;;;;;7.07;2.53;;;10.50;83.90;;;;;;5043279;28;20053;-79
2021/10/22 10:32:19;;;;;;;5.10;1.70;;;10.60;83.90;;;;;;5053516;28;20117;-79
2021/10/22 10:34:59;;;;;;;5.40;1.90;;;10.60;83.90;;;;;;5052179;28;20029;-79
2021/10/22 10:37:33;;;;;;;7.05;1.90;;;10.60;84.20;;;;;;5053809;28;20033;-79
2021/10/22 10:40:00;;;;;;;6.50;2.00;;;10.60;84.20;;;;;;5053245;28;20050;-79
2021/10/22 10:42:35;;;;;;;4.78;1.67;;;10.70;84.40;;;;;;5049940;28;20131;-79
2021/10/22 10:45:06;;;;;;;3.72;1.75;;;10.70;84.40;;;;;;5048946;28;20053;-80
2021/10/22 10:48:02;;;;;;;4.85;1.70;;;10.80;84.40;;;;;;5048360;28;20621;-80
2021/10/22 10:50:34;;;;;;;5.80;1.80;;;10.80;84.50;;;;;;5057107;28;20085;-80
2021/10/22 10:53:00;;;;;;;6.03;1.73;;;10.90;84.70;;;;;;5051355;28;20113;-80
2021/10/22 10:55:30;;;;;;;6.85;1.80;;;11.00;84.80;;;;;;5053114;28;20116;-79
2021/10/22 10:58:00;;;;;;;4.70;1.83;;;11.00;84.80;;;;;;5051169;28;20020;-79
2021/10/22 11:00:34;;;;;;;8.90;2.35;;;11.20;85.00;;;;;;5052335;28;20042;-79
2021/10/22 11:03:05;;;;;;;6.80;1.75;;;11.30;85.00;;;;;;5055343;28;20036;-80
2021/10/22 11:05:47;;;;;;;6.95;1.73;;;11.40;85.00;;;;;;5058066;28;20053;-80
2021/10/22 11:08:22;;;;;;;7.13;1.90;;;11.50;84.70;;;;;;5051111;28;20055;-80
2021/10/22 11:10:59;;;;;;;8.07;2.00;;;11.50;84.40;;;;;;5049913;28;20017;-81
2021/10/22 11:13:24;;;;;;;4.00;1.80;;;11.60;84.30;;;;;;5052463;28;20064;-80
2021/10/22 11:15:51;;;;;;;7.55;1.80;;;11.80;84.10;;;;;;5053723;28;20064;-82
2021/10/22 11:18:21;;;;;;;7.90;2.28;;;11.90;83.90;;;;;;5051889;28;20029;-79
2021/10/22 11:20:48;;;;;;;7.78;2.00;;;12.10;83.50;;;;;;5052190;28;20063;-80
2021/10/22 11:23:14;;;;;;;6.57;1.83;;;12.30;83.00;;;;;;5048991;28;20032;-81
2021/10/22 11:25:40;;;;;;;8.20;2.20;;;12.40;82.60;;;;;;5053303;28;20021;-80
2021/10/22 11:28:11;;;;;;;8.57;1.70;;;12.40;82.00;;;;;;5050014;28;20103;-80
2021/10/22 11:30:38;;;;;;;8.02;1.75;;;12.50;81.70;;;;;;5055609;28;20040;-80
2021/10/22 11:33:04;;;;;;;4.13;1.70;;;12.50;81.50;;;;;;5053448;28;20087;-80
2021/10/22 11:35:30;;;;;;;7.50;2.00;;;12.60;81.40;;;;;;5049280;28;20044;-80
2021/10/22 11:38:04;;;;;;;10.35;2.03;;;12.70;80.90;;;;;;5042868;28;20182;-82
2021/10/22 11:40:30;;;;;;;5.63;1.42;;;12.90;80.60;;;;;;5040407;28;20361;-81
2021/10/22 11:43:06;;;;;;;8.10;1.85;;;13.10;80.10;;;;;;5051895;28;20150;-79
2021/10/22 11:45:32;;;;;;;8.55;1.88;;;13.30;79.10;;;;;;5059450;28;20139;-79
2021/10/22 11:47:58;;;;;;;6.80;1.90;;;13.30;78.70;;;;;;5052684;28;20505;-80
2021/10/22 11:50:29;;;;;;;6.85;1.50;;;13.30;78.70;;;;;;5055014;28;20018;-79
2021/10/22 11:53:11;;;;;;;4.47;1.57;;;13.20;78.70;;;;;;5052249;28;20600;-79
2021/10/22 11:55:38;;;;;;;5.75;1.60;;;13.30;78.70;;;;;;5047622;28;20025;-83
2021/10/22 11:58:11;;;;;;;6.18;2.00;;;13.20;78.40;;;;;;5053216;28;20027;-79
2021/10/22 12:00:48;;;;;;;6.72;1.73;;;13.10;78.20;;;;;;5041510;28;20023;-80
2021/10/22 12:03:13;;;;;;;6.47;1.73;;;13.10;78.50;;;;;;5050206;28;20024;-82
2021/10/22 12:05:43;;;;;;;6.22;1.45;;;13.00;78.40;;;;;;5055025;28;20036;-80
2021/10/22 12:08:17;;;;;;;9.52;1.80;;;13.00;78.30;;;;;;5041055;28;20040;-79
2021/10/22 12:10:53;;;;;;;5.38;1.48;;;13.00;78.10;;;;;;5050072;28;20041;-83
2021/10/22 12:13:31;;;;;;;5.68;1.80;;;13.00;78.00;;;;;;5047644;28;20025;-79
2021/10/22 12:16:16;;;;;;;4.55;1.45;;;13.00;77.90;;;;;;5055378;28;20029;-81
2021/10/22 12:18:57;;;;;;;4.75;1.45;;;13.00;77.90;;;;;;5041695;28;20460;-79
2021/10/22 12:21:27;;;;;;;6.50;1.70;;;13.10;77.90;;;;;;5050179;28;20036;-80
2021/10/22 12:24:01;;;;;;;4.60;1.50;;;13.10;77.70;;;;;;5050547;28;20436;-80
2021/10/22 12:26:29;;;;;;;10.40;2.38;;;13.10;77.90;;;;;;5055189;28;20017;-81
2021/10/22 12:29:09;;;;;;;8.10;1.70;;;13.10;77.30;;;;;;5043730;28;20029;-83
2021/10/22 12:31:45;;;;;;;6.15;1.45;;;13.10;77.00;;;;;;5055986;28;20025;-82
2021/10/22 12:34:16;;;;;;;5.50;1.23;;;13.10;76.90;;;;;;5049530;28;20139;-78
2021/10/22 12:36:45;;;;;;;6.07;1.58;;;13.10;76.90;;;;;;5048993;28;20052;-80
2021/10/22 12:39:24;;;;;;;5.57;1.35;;;13.10;76.90;;;;;;5058224;28;20021;-82
2021/10/22 12:41:51;;;;;;;5.97;1.63;;;13.10;77.10;;;;;;5059009;28;20031;-80
2021/10/22 12:44:18;;;;;;;4.80;1.60;;;13.00;77.20;;;;;;5052160;28;20056;-82
2021/10/22 12:46:53;;;;;;;5.57;1.63;;;12.90;77.30;;;;;;5051438;28;20488;-80
2021/10/22 12:49:29;;;;;;;7.18;1.77;;;12.80;77.70;;;;;;5050827;28;20108;-81
2021/10/22 12:52:00;;;;;;;4.95;1.38;;;12.80;77.80;;;;;;5050873;28;20041;-82
2021/10/22 12:54:25;;;;;;;3.40;1.15;;;12.80;78.20;;;;;;5052780;28;20033;-82
2021/10/22 12:57:00;;;;;;;6.03;2.00;;;12.70;78.40;;;;;;5055172;28;20056;-82
2021/10/22 12:59:30;;;;;;;5.75;1.42;;;12.70;78.60;;;;;;5049571;28;20490;-80
2021/10/22 13:01:56;;;;;;;5.97;1.73;;;12.60;78.90;;;;;;5050986;28;20063;-82
2021/10/22 13:04:24;;;;;;;3.38;1.08;;;12.60;79.10;;;;;;5055382;28;20024;-77
2021/10/22 13:12:33;;;;;;;5.22;1.52;;;12.50;79.70;;;;;;5052336;28;20028;-79